createdAt,value
2022-08-16T00:00:03.792Z,990.63
2022-08-16T00:05:00.267Z,990.61
2022-08-16T00:10:00.131Z,990.62
2022-08-16T00:15:00.084Z,990.67
2022-08-16T00:20:00.091Z,990.68
2022-08-16T00:25:00.092Z,990.79
2022-08-16T00:30:01.027Z,990.79
2022-08-16T00:35:00.432Z,990.82
2022-08-16T00:40:00.160Z,990.81
2022-08-16T00:45:00.109Z,990.81
2022-08-16T00:50:00.078Z,990.71
2022-08-16T00:55:00.116Z,990.78
2022-08-16T01:00:00.137Z,990.81
2022-08-16T01:05:09.229Z,990.8
2022-08-16T01:10:00.105Z,990.82
2022-08-16T01:15:00.125Z,990.93
2022-08-16T01:20:00.080Z,990.83
2022-08-16T01:25:00.080Z,990.85
2022-08-16T01:30:00.213Z,990.87
2022-08-16T01:35:00.098Z,990.81
2022-08-16T01:40:00.210Z,990.79
2022-08-16T01:45:00.102Z,990.79
2022-08-16T01:50:41.425Z,990.7
2022-08-16T01:55:00.086Z,990.77
2022-08-16T02:00:00.119Z,990.74
2022-08-16T02:05:00.174Z,990.73
2022-08-16T02:10:02.053Z,990.78
2022-08-16T02:15:00.127Z,990.85
2022-08-16T02:20:00.821Z,990.81
2022-08-16T02:25:00.095Z,990.75
2022-08-16T02:30:04.819Z,990.81
2022-08-16T02:35:00.100Z,990.87
2022-08-16T02:40:00.190Z,990.92
2022-08-16T02:45:00.090Z,990.93
2022-08-16T02:50:53.099Z,991.07
2022-08-16T02:55:00.114Z,991.07
2022-08-16T03:00:00.165Z,991.07
2022-08-16T03:05:00.099Z,991.03
2022-08-16T03:10:00.356Z,991.01
2022-08-16T03:15:00.089Z,991.02
2022-08-16T03:20:02.605Z,990.98
2022-08-16T03:25:00.647Z,990.97
2022-08-16T03:30:00.099Z,991.03
2022-08-16T03:35:00.080Z,991.07
2022-08-16T03:40:02.602Z,991.12
2022-08-16T03:45:03.665Z,991.24
2022-08-16T03:50:00.094Z,991.32
2022-08-16T03:55:00.106Z,991.24
2022-08-16T04:00:00.091Z,991.35
2022-08-16T04:05:00.157Z,991.34
2022-08-16T04:10:00.097Z,991.4
2022-08-16T04:15:00.096Z,991.41
2022-08-16T04:20:00.120Z,991.4
2022-08-16T04:25:00.092Z,991.41
2022-08-16T04:30:02.634Z,991.43
2022-08-16T04:35:02.204Z,991.46
2022-08-16T04:40:00.160Z,991.42
2022-08-16T04:45:01.921Z,991.48
2022-08-16T04:50:00.104Z,991.53
2022-08-16T04:55:00.102Z,991.55
2022-08-16T05:00:25.334Z,991.57
2022-08-16T05:05:00.088Z,991.61
2022-08-16T05:10:00.095Z,991.51
2022-08-16T05:15:02.309Z,991.59
2022-08-16T05:20:00.102Z,991.64
2022-08-16T05:25:00.091Z,991.69
2022-08-16T05:30:03.861Z,991.79
2022-08-16T05:35:00.090Z,991.88
2022-08-16T05:40:00.131Z,991.96
2022-08-16T05:45:00.094Z,992.04
2022-08-16T05:50:00.074Z,991.97
2022-08-16T05:55:01.343Z,992.02
2022-08-16T06:00:01.216Z,992.14
2022-08-16T06:05:00.105Z,992.15
2022-08-16T06:10:00.296Z,992.12
2022-08-16T06:15:00.154Z,992.17
2022-08-16T06:20:00.079Z,992.25
2022-08-16T06:25:00.079Z,992.31
2022-08-16T06:30:00.108Z,992.34
2022-08-16T06:35:02.194Z,992.44
2022-08-16T06:40:00.161Z,992.48
2022-08-16T06:45:00.090Z,992.5
2022-08-16T06:50:00.138Z,992.45
2022-08-16T06:55:00.094Z,992.48
2022-08-16T07:00:00.112Z,992.56
2022-08-16T07:05:00.093Z,992.68
2022-08-16T07:10:00.096Z,992.63
2022-08-16T07:15:00.089Z,992.73
2022-08-16T07:20:04.267Z,992.78
2022-08-16T07:25:00.082Z,992.7
2022-08-16T07:30:00.089Z,992.77
2022-08-16T07:35:00.089Z,992.83
2022-08-16T07:40:00.153Z,992.83
2022-08-16T07:45:00.091Z,992.85
2022-08-16T07:50:00.125Z,992.9
2022-08-16T07:55:00.085Z,992.98
2022-08-16T08:00:00.094Z,993
2022-08-16T08:05:00.113Z,992.96
2022-08-16T08:10:00.095Z,993.15
2022-08-16T08:15:00.088Z,993.15
2022-08-16T08:20:00.107Z,993.14
2022-08-16T08:25:03.694Z,993.1
2022-08-16T08:30:09.394Z,993.09
2022-08-16T08:35:00.435Z,993.19
2022-08-16T08:40:00.120Z,993.24
2022-08-16T08:45:00.086Z,993.28
2022-08-16T08:50:00.080Z,993.27
2022-08-16T08:55:00.098Z,993.22
2022-08-16T09:00:00.164Z,993.31
2022-08-16T09:05:00.091Z,993.26
2022-08-16T09:10:00.998Z,993.25
2022-08-16T09:15:00.082Z,993.26
2022-08-16T09:20:02.775Z,993.22
2022-08-16T09:25:09.606Z,993.23
2022-08-16T09:30:02.768Z,993.31
2022-08-16T09:35:00.103Z,993.28
2022-08-16T09:40:00.431Z,993.26
2022-08-16T09:45:09.812Z,993.19
2022-08-16T09:50:00.072Z,993.19
2022-08-16T09:55:00.091Z,993.23
2022-08-16T10:00:00.112Z,993.24
2022-08-16T10:05:00.157Z,993.16
2022-08-16T10:10:00.072Z,993.12
2022-08-16T10:15:00.093Z,993.07
2022-08-16T10:20:00.079Z,993.15
2022-08-16T10:25:00.339Z,993.17
2022-08-16T10:30:06.712Z,993.13
2022-08-16T10:35:00.081Z,993.09
2022-08-16T10:40:00.134Z,993.07
2022-08-16T10:45:00.093Z,993.13
2022-08-16T10:50:00.105Z,993.07
2022-08-16T10:55:37.475Z,993.07
2022-08-16T11:00:00.100Z,993.11
2022-08-16T11:05:08.488Z,993.08
2022-08-16T11:10:19.666Z,993.09
2022-08-16T11:15:17.015Z,993.12
2022-08-16T11:20:00.857Z,993.1
2022-08-16T11:26:01.441Z,993.07
2022-08-16T11:30:00.093Z,993.07
2022-08-16T11:35:10.069Z,993.13
2022-08-16T11:40:00.244Z,993.16
2022-08-16T11:45:00.142Z,993.13
2022-08-16T11:50:00.088Z,993.13
2022-08-16T11:55:00.447Z,993.07
2022-08-16T12:00:00.161Z,993.14
2022-08-16T12:05:00.967Z,993.13
2022-08-16T12:10:00.077Z,993.05
2022-08-16T12:15:00.552Z,993.05
2022-08-16T12:20:00.129Z,993.15
2022-08-16T12:25:00.091Z,993.22
2022-08-16T12:30:00.092Z,993.22
2022-08-16T12:35:00.105Z,993.17
2022-08-16T12:40:00.240Z,993
2022-08-16T12:45:00.092Z,993.09
2022-08-16T12:50:00.079Z,993.04
2022-08-16T12:55:00.118Z,992.99
2022-08-16T13:00:00.098Z,993.04
2022-08-16T13:05:00.114Z,992.98
2022-08-16T13:10:01.681Z,992.96
2022-08-16T13:15:00.088Z,992.95
2022-08-16T13:20:08.834Z,992.89
2022-08-16T13:25:00.090Z,992.92
2022-08-16T13:30:00.105Z,992.89
2022-08-16T13:35:00.084Z,992.89
2022-08-16T13:40:00.159Z,992.88
2022-08-16T13:45:00.100Z,992.85
2022-08-16T13:50:00.085Z,992.85
2022-08-16T13:55:00.110Z,992.79
2022-08-16T14:00:00.084Z,992.78
2022-08-16T14:05:02.983Z,992.82
2022-08-16T14:10:00.092Z,992.8
2022-08-16T14:15:00.095Z,992.7
2022-08-16T14:20:00.222Z,992.75
2022-08-16T14:25:00.087Z,992.69
2022-08-16T14:30:00.096Z,992.7
2022-08-16T14:35:00.130Z,992.74
2022-08-16T14:40:00.196Z,992.67
2022-08-16T14:45:00.301Z,992.6
2022-08-16T14:50:00.082Z,992.6
2022-08-16T14:55:00.078Z,992.53
2022-08-16T15:00:04.887Z,992.59
2022-08-16T15:05:00.079Z,992.45
2022-08-16T15:10:01.834Z,992.51
2022-08-16T15:15:00.099Z,992.42
2022-08-16T15:20:00.082Z,992.52
2022-08-16T15:25:00.084Z,992.52
2022-08-16T15:30:00.099Z,992.58
2022-08-16T15:35:03.392Z,992.56
2022-08-16T15:40:00.142Z,992.64
2022-08-16T15:45:00.103Z,992.63
2022-08-16T15:50:00.073Z,992.63
2022-08-16T15:55:00.262Z,992.62
2022-08-16T16:00:04.465Z,992.64
2022-08-16T16:05:00.792Z,992.7
2022-08-16T16:10:00.182Z,992.65
2022-08-16T16:15:00.154Z,992.69
2022-08-16T16:20:00.274Z,992.65
2022-08-16T16:25:00.094Z,992.59
2022-08-16T16:30:01.726Z,992.67
2022-08-16T16:35:00.087Z,992.59
2022-08-16T16:40:00.189Z,992.66
2022-08-16T16:45:01.968Z,992.54
2022-08-16T16:50:00.070Z,992.64
2022-08-16T16:55:00.094Z,992.75
2022-08-16T17:00:00.108Z,992.69
2022-08-16T17:05:00.090Z,992.74
2022-08-16T17:10:00.080Z,992.77
2022-08-16T17:15:00.111Z,992.83
2022-08-16T17:20:00.076Z,992.82
2022-08-16T17:25:00.097Z,992.82
2022-08-16T17:30:00.128Z,992.86
2022-08-16T17:35:00.307Z,992.86
2022-08-16T17:40:00.868Z,992.97
2022-08-16T17:45:00.090Z,992.99
2022-08-16T17:50:00.069Z,993
2022-08-16T17:55:00.076Z,993.09
2022-08-16T18:00:00.084Z,993.11
2022-08-16T18:05:00.086Z,993.09
2022-08-16T18:10:00.083Z,993.18
2022-08-16T18:15:00.395Z,993.11
2022-08-16T18:20:00.087Z,993.24
2022-08-16T18:25:00.078Z,993.23
2022-08-16T18:30:00.092Z,993.19
2022-08-16T18:35:00.097Z,993.31
2022-08-16T18:40:00.203Z,993.26
2022-08-16T18:45:00.088Z,993.28
2022-08-16T18:50:00.071Z,993.38
2022-08-16T18:55:02.129Z,993.46
2022-08-16T19:00:00.096Z,993.51
2022-08-16T19:05:00.096Z,993.57
2022-08-16T19:10:00.076Z,993.6
2022-08-16T19:15:00.091Z,993.64
2022-08-16T19:20:00.130Z,993.67
2022-08-16T19:25:00.092Z,993.67
2022-08-16T19:30:00.101Z,993.82
2022-08-16T19:35:00.089Z,993.74
2022-08-16T19:40:00.213Z,993.84
2022-08-16T19:45:00.103Z,993.89
2022-08-16T19:50:00.098Z,993.93
2022-08-16T19:55:00.108Z,994
2022-08-16T20:00:00.143Z,993.98
2022-08-16T20:05:00.125Z,993.96
2022-08-16T20:10:00.113Z,993.98
2022-08-16T20:15:00.103Z,993.95
2022-08-16T20:20:00.088Z,993.97
2022-08-16T20:25:00.109Z,994.04
2022-08-16T20:30:00.097Z,994.03
2022-08-16T20:35:00.109Z,994.07
2022-08-16T20:40:18.363Z,994.05
2022-08-16T20:45:00.104Z,993.99
2022-08-16T20:50:00.097Z,994.05
2022-08-16T20:55:00.138Z,994.03
2022-08-16T21:00:00.116Z,994.03
2022-08-16T21:05:00.141Z,994.04
2022-08-16T21:10:00.081Z,994.1
2022-08-16T21:15:00.089Z,994.04
2022-08-16T21:20:00.117Z,994.06
2022-08-16T21:25:00.104Z,994.07
2022-08-16T21:30:00.101Z,994.14
2022-08-16T21:35:00.117Z,994.17
2022-08-16T21:40:00.126Z,994.19
2022-08-16T21:45:00.132Z,994.18
2022-08-16T21:50:00.096Z,994.22
2022-08-16T21:55:00.137Z,994.26
2022-08-16T22:00:00.152Z,994.19
2022-08-16T22:05:00.141Z,994.31
2022-08-16T22:10:00.111Z,994.28
2022-08-16T22:15:00.089Z,994.26
2022-08-16T22:20:00.102Z,994.23
2022-08-16T22:25:00.087Z,994.33
2022-08-16T22:30:00.115Z,994.31
2022-08-16T22:35:10.654Z,994.33
2022-08-16T22:40:00.172Z,994.39
2022-08-16T22:45:00.084Z,994.38
2022-08-16T22:50:00.103Z,994.38
2022-08-16T22:55:00.126Z,994.36
2022-08-16T23:00:00.092Z,994.33
2022-08-16T23:05:00.090Z,994.26
2022-08-16T23:10:00.084Z,994.25
2022-08-16T23:15:00.099Z,994.28
2022-08-16T23:20:00.090Z,994.29
2022-08-16T23:25:00.103Z,994.24
2022-08-16T23:30:00.132Z,994.28
2022-08-16T23:35:00.091Z,994.23
2022-08-16T23:40:00.179Z,994.25
2022-08-16T23:45:00.108Z,994.21
2022-08-16T23:50:03.748Z,994.19
2022-08-16T23:55:00.085Z,994.19
